Time;durP1;ratioP1;P1;durP2;ratioP2;P2;SDS_P1;SDS_P2;PMS_P1;PMS_P2;Temp;Humidity;BMP_temperature;BMP_pressure;BME280_temperature;BME280_humidity;BME280_pressure;Samples;Min_cycle;Max_cycle;Signal;HPM_P1;HPM_P2
2021/06/21 00:02:23;;;;;;;17.10;6.03;;;19.70;99.90;;;;;;5053186;28;20028;-46
2021/06/21 00:04:50;;;;;;;12.20;5.47;;;19.70;99.90;;;;;;5053778;28;20488;-50
2021/06/21 00:07:15;;;;;;;11.25;4.78;;;19.70;99.90;;;;;;5054246;28;20025;-48
2021/06/21 00:09:41;;;;;;;13.35;4.40;;;19.60;99.90;;;;;;5052927;28;20025;-47
2021/06/21 00:12:09;;;;;;;10.50;3.30;;;19.60;99.90;;;;;;5052863;28;20510;-49
2021/06/21 00:14:34;;;;;;;7.45;2.88;;;19.60;99.90;;;;;;5052879;28;20433;-50
2021/06/21 00:17:00;;;;;;;16.63;3.70;;;19.50;99.90;;;;;;5052814;28;20124;-50
2021/06/21 00:19:25;;;;;;;6.85;2.47;;;19.50;99.90;;;;;;5053029;28;20104;-50
2021/06/21 00:21:51;;;;;;;12.40;3.45;;;19.50;99.90;;;;;;5052673;28;20029;-49
2021/06/21 00:24:20;;;;;;;13.90;3.35;;;19.50;99.90;;;;;;5052889;28;20041;-51
2021/06/21 00:26:47;;;;;;;12.63;2.85;;;19.50;99.90;;;;;;5052716;28;20027;-51
2021/06/21 00:29:13;;;;;;;16.25;3.58;;;19.50;99.90;;;;;;5052387;28;20123;-54
2021/06/21 00:31:38;;;;;;;16.40;3.60;;;19.50;99.90;;;;;;5052660;28;20120;-50
2021/06/21 00:34:04;;;;;;;14.65;3.42;;;19.40;99.90;;;;;;5052048;28;20036;-53
2021/06/21 00:36:29;;;;;;;14.02;2.78;;;19.40;99.90;;;;;;5052561;28;20025;-50
2021/06/21 00:38:55;;;;;;;6.20;2.22;;;19.50;99.90;;;;;;5052109;28;20017;-52
2021/06/21 00:41:20;;;;;;;10.65;2.65;;;19.50;99.90;;;;;;5052559;28;20511;-47
2021/06/21 00:43:46;;;;;;;9.35;2.20;;;19.40;99.90;;;;;;5052582;28;20051;-51
2021/06/21 00:46:12;;;;;;;7.32;2.15;;;19.40;99.90;;;;;;5052485;28;20079;-49
2021/06/21 00:48:38;;;;;;;12.40;2.78;;;19.30;99.90;;;;;;5052563;28;20040;-48
2021/06/21 00:51:04;;;;;;;10.10;1.85;;;19.30;99.90;;;;;;5052238;28;20056;-50
2021/06/21 00:53:29;;;;;;;8.60;2.47;;;19.30;99.90;;;;;;5052136;28;20029;-49
2021/06/21 00:55:55;;;;;;;12.93;3.75;;;19.20;99.90;;;;;;5052304;28;20025;-52
2021/06/21 00:58:21;;;;;;;9.13;2.35;;;19.20;99.90;;;;;;5052276;28;20102;-54
2021/06/21 01:00:47;;;;;;;10.65;2.58;;;19.30;99.90;;;;;;5051988;28;20064;-48
2021/06/21 01:03:13;;;;;;;9.63;2.45;;;19.20;99.90;;;;;;5052176;28;20056;-51
2021/06/21 01:05:39;;;;;;;8.45;2.17;;;19.10;99.90;;;;;;5052237;28;20036;-51
2021/06/21 01:08:09;;;;;;;10.30;3.85;;;19.10;99.90;;;;;;5051983;28;20521;-50
2021/06/21 01:10:36;;;;;;;11.35;3.00;;;19.10;99.90;;;;;;5051795;28;20048;-49
2021/06/21 01:13:23;;;;;;;20.77;4.30;;;19.10;99.90;;;;;;5051796;28;20036;-49
2021/06/21 01:16:13;;;;;;;18.90;2.95;;;19.00;99.90;;;;;;5051996;28;20068;-48
2021/06/21 01:18:44;;;;;;;17.02;4.40;;;19.00;99.90;;;;;;5051954;28;20267;-50
2021/06/21 01:21:28;;;;;;;16.70;3.63;;;19.00;99.90;;;;;;5051618;28;20514;-50
2021/06/21 01:24:28;;;;;;;18.30;3.55;;;19.00;99.90;;;;;;5051728;28;20502;-51
2021/06/21 01:27:00;;;;;;;13.15;3.35;;;19.00;99.90;;;;;;5033974;28;20044;-50
2021/06/21 01:29:41;;;;;;;13.23;3.50;;;18.90;99.90;;;;;;5051426;28;20029;-51
2021/06/21 01:32:30;;;;;;;12.57;2.85;;;18.90;99.90;;;;;;5033443;28;20451;-48
2021/06/21 01:34:58;;;;;;;14.52;3.83;;;18.90;99.90;;;;;;5066598;23;20094;-54
2021/06/21 01:37:24;;;;;;;11.20;3.10;;;18.80;99.90;;;;;;5051288;28;20048;-54
2021/06/21 01:39:55;;;;;;;13.30;3.28;;;18.80;99.90;;;;;;5050624;28;20119;-53
2021/06/21 01:42:22;;;;;;;6.43;3.10;;;18.80;99.90;;;;;;5051561;28;20549;-54
2021/06/21 01:45:03;;;;;;;14.70;3.67;;;18.80;99.90;;;;;;5051139;28;20045;-53
2021/06/21 01:47:29;;;;;;;12.88;3.13;;;18.70;99.90;;;;;;5051276;28;20106;-52
2021/06/21 01:49:56;;;;;;;25.75;5.32;;;18.70;99.90;;;;;;5050745;28;20017;-52
2021/06/21 01:52:23;;;;;;;11.85;2.97;;;18.70;99.90;;;;;;5050523;28;20025;-52
2021/06/21 01:54:55;;;;;;;19.92;3.38;;;18.70;99.90;;;;;;5050928;28;20020;-50
2021/06/21 01:57:29;;;;;;;12.02;3.70;;;18.70;99.90;;;;;;5051125;28;20395;-53
2021/06/21 01:59:55;;;;;;;15.23;3.90;;;18.60;99.90;;;;;;5050422;28;20025;-49
2021/06/21 02:02:23;;;;;;;15.30;4.07;;;18.60;99.90;;;;;;5051118;28;20483;-51
2021/06/21 02:04:53;;;;;;;14.82;4.60;;;18.50;99.90;;;;;;5050915;28;20053;-51
2021/06/21 02:07:21;;;;;;;14.30;3.75;;;18.50;99.90;;;;;;5051062;28;20476;-51
2021/06/21 02:09:48;;;;;;;13.95;3.95;;;18.50;99.90;;;;;;5050471;28;20190;-53
2021/06/21 02:12:17;;;;;;;18.95;3.97;;;18.50;99.90;;;;;;5051109;28;20480;-50
2021/06/21 02:14:45;;;;;;;14.05;4.40;;;18.50;99.90;;;;;;5050851;28;20553;-54
2021/06/21 02:17:11;;;;;;;12.73;3.83;;;18.50;99.90;;;;;;5050955;28;20407;-54
2021/06/21 02:19:37;;;;;;;10.75;4.28;;;18.40;99.90;;;;;;5050083;28;20029;-53
2021/06/21 02:22:02;;;;;;;13.40;5.32;;;18.40;99.90;;;;;;5050782;28;20025;-51
2021/06/21 02:24:29;;;;;;;15.90;3.10;;;18.40;99.90;;;;;;5050549;28;20058;-49
2021/06/21 02:26:55;;;;;;;17.10;3.80;;;18.30;99.90;;;;;;5050586;28;20458;-54
2021/06/21 02:29:23;;;;;;;16.63;4.45;;;18.30;99.90;;;;;;5050085;28;20037;-51
2021/06/21 02:31:50;;;;;;;17.70;3.45;;;18.30;99.90;;;;;;5050503;28;20048;-52
2021/06/21 02:34:16;;;;;;;17.38;4.03;;;18.30;99.90;;;;;;5048954;28;20037;-52
2021/06/21 02:36:42;;;;;;;15.25;4.93;;;18.30;99.90;;;;;;5050418;28;20020;-51
2021/06/21 02:39:08;;;;;;;15.02;3.40;;;18.30;99.90;;;;;;5049734;28;20033;-50
2021/06/21 02:41:34;;;;;;;22.98;4.47;;;18.30;99.90;;;;;;5050371;28;20067;-52
2021/06/21 02:44:00;;;;;;;16.63;4.10;;;18.30;99.90;;;;;;5050378;28;20025;-55
2021/06/21 02:46:26;;;;;;;14.30;3.50;;;18.30;99.90;;;;;;5032383;28;20033;-51
2021/06/21 02:48:52;;;;;;;17.83;4.07;;;18.40;99.90;;;;;;5049883;28;20454;-54
2021/06/21 02:51:21;;;;;;;9.30;2.85;;;18.40;99.90;;;;;;5049608;28;20057;-49
2021/06/21 02:53:58;;;;;;;11.93;3.35;;;18.40;99.90;;;;;;5050245;28;20518;-52
2021/06/21 02:56:44;;;;;;;14.85;3.38;;;18.50;99.90;;;;;;5050554;28;20112;-54
2021/06/21 02:59:10;;;;;;;;;;;18.50;99.90;;;;;;5049973;28;20025;-52
2021/06/21 03:01:44;;;;;;;15.98;3.75;;;18.50;99.90;;;;;;5050271;28;19912;-52
2021/06/21 03:04:12;;;;;;;17.92;3.80;;;18.50;99.90;;;;;;5054183;28;20024;-51
2021/06/21 03:06:38;;;;;;;14.45;3.47;;;18.50;99.90;;;;;;5054058;28;20021;-51
2021/06/21 03:09:04;;;;;;;16.25;4.70;;;18.50;99.90;;;;;;5053368;28;20032;-52
2021/06/21 03:11:31;;;;;;;14.70;3.70;;;18.50;99.90;;;;;;5054044;28;20062;-52
2021/06/21 03:13:57;;;;;;;12.38;3.83;;;18.40;99.90;;;;;;5053946;28;20036;-50
2021/06/21 03:16:26;;;;;;;12.52;3.75;;;18.40;99.90;;;;;;5053992;28;20029;-50
2021/06/21 03:18:54;;;;;;;9.15;3.33;;;18.40;99.90;;;;;;5053822;28;20159;-51
2021/06/21 03:21:20;;;;;;;18.30;4.07;;;18.40;99.90;;;;;;5053722;28;20523;-51
2021/06/21 03:23:51;;;;;;;15.50;3.65;;;18.40;99.90;;;;;;5053926;28;20116;-50
2021/06/21 03:26:17;;;;;;;20.67;4.60;;;18.40;99.90;;;;;;5054509;28;20025;-53
2021/06/21 03:28:42;;;;;;;19.85;3.97;;;18.40;99.90;;;;;;5059415;28;20039;-52
2021/06/21 03:31:09;;;;;;;18.17;4.20;;;18.50;99.90;;;;;;5057999;28;20064;-52
2021/06/21 03:33:36;;;;;;;16.67;4.20;;;18.50;99.90;;;;;;5058749;28;20559;-53
2021/06/21 03:36:02;;;;;;;15.82;4.30;;;18.50;99.90;;;;;;5058084;28;20034;-54
2021/06/21 03:38:29;;;;;;;13.27;4.30;;;18.50;99.90;;;;;;5053057;28;20109;-52
2021/06/21 03:41:04;;;;;;;27.10;5.20;;;18.60;99.90;;;;;;5052140;28;20514;-51
2021/06/21 03:43:31;;;;;;;13.88;4.07;;;18.50;99.90;;;;;;5051936;28;20033;-50
2021/06/21 03:45:59;;;;;;;18.13;4.32;;;18.50;99.90;;;;;;5053533;28;20384;-55
2021/06/21 03:48:25;;;;;;;18.38;5.32;;;18.50;99.90;;;;;;5051342;28;20029;-55
2021/06/21 03:50:50;;;;;;;18.73;3.80;;;18.40;99.90;;;;;;5052552;28;20037;-53
2021/06/21 03:53:18;;;;;;;20.00;4.50;;;18.40;99.90;;;;;;5052821;28;20021;-53
2021/06/21 03:55:44;;;;;;;15.32;4.53;;;18.40;99.90;;;;;;5053006;28;20083;-49
2021/06/21 03:58:10;;;;;;;13.68;3.53;;;18.40;99.90;;;;;;5052763;28;20523;-51
2021/06/21 04:00:36;;;;;;;19.98;4.93;;;18.30;99.90;;;;;;5051908;28;20040;-52
2021/06/21 04:03:03;;;;;;;17.80;4.65;;;18.40;99.90;;;;;;5052767;28;20079;-51
2021/06/21 04:05:29;;;;;;;12.60;4.05;;;18.40;99.90;;;;;;5053045;28;20029;-51
2021/06/21 04:07:55;;;;;;;16.65;4.75;;;18.40;99.90;;;;;;5052681;28;20094;-49
2021/06/21 04:10:24;;;;;;;20.63;4.88;;;18.50;99.90;;;;;;5052162;28;20084;-52
2021/06/21 04:12:51;;;;;;;18.77;3.63;;;18.60;99.90;;;;;;5052372;28;20082;-51
2021/06/21 04:15:30;;;;;;;14.80;3.67;;;18.50;99.90;;;;;;5052199;28;20027;-51
2021/06/21 04:17:57;;;;;;;13.75;3.53;;;18.50;99.90;;;;;;5034817;28;20095;-54
2021/06/21 04:20:23;;;;;;;15.05;3.38;;;18.60;99.90;;;;;;5052136;28;20020;-53
2021/06/21 04:22:48;;;;;;;21.65;3.75;;;18.50;99.90;;;;;;5052182;28;20025;-50
2021/06/21 04:25:15;;;;;;;14.18;3.88;;;18.60;99.90;;;;;;5034691;28;20036;-53
2021/06/21 04:27:41;;;;;;;14.30;3.97;;;18.60;99.90;;;;;;5052469;28;20028;-52
2021/06/21 04:30:09;;;;;;;16.90;3.50;;;18.60;99.90;;;;;;5051557;28;20028;-53
2021/06/21 04:32:36;;;;;;;12.68;3.08;;;18.70;99.90;;;;;;5052436;28;20432;-49
2021/06/21 04:35:02;;;;;;;16.95;3.40;;;18.70;99.90;;;;;;5052232;28;20075;-52
2021/06/21 04:37:28;;;;;;;9.25;3.22;;;18.80;99.90;;;;;;5052332;28;20087;-53
2021/06/21 04:39:53;;;;;;;8.30;2.78;;;18.70;99.90;;;;;;5051614;28;20033;-54
2021/06/21 04:42:19;;;;;;;9.60;2.55;;;18.70;99.90;;;;;;5052239;28;20036;-50
2021/06/21 04:44:45;;;;;;;10.80;2.88;;;18.70;99.90;;;;;;5052260;28;20067;-49
2021/06/21 04:47:11;;;;;;;15.48;3.63;;;18.70;99.90;;;;;;5033930;28;20091;-53
2021/06/21 04:49:37;;;;;;;17.38;4.65;;;18.70;99.90;;;;;;5051693;28;20025;-50
2021/06/21 04:52:05;;;;;;;9.68;2.25;;;18.70;99.90;;;;;;5051886;28;20498;-49
2021/06/21 04:54:31;;;;;;;9.95;2.38;;;18.70;99.90;;;;;;5051596;28;20029;-52
2021/06/21 04:56:56;;;;;;;15.35;2.80;;;18.80;99.90;;;;;;5051246;28;20495;-50
2021/06/21 04:59:22;;;;;;;7.53;2.10;;;18.90;99.90;;;;;;5050667;28;20025;-52
2021/06/21 05:01:47;;;;;;;15.27;3.05;;;18.90;99.90;;;;;;5051570;28;20025;-52
2021/06/21 05:04:13;;;;;;;10.45;2.25;;;19.00;99.90;;;;;;5051574;28;20089;-53
2021/06/21 05:06:38;;;;;;;10.45;3.15;;;19.00;99.90;;;;;;5051592;28;20017;-53
2021/06/21 05:09:07;;;;;;;7.28;2.15;;;18.90;99.90;;;;;;5050700;28;20037;-55
2021/06/21 05:11:32;;;;;;;9.40;1.85;;;18.90;99.90;;;;;;5051483;28;20059;-54
2021/06/21 05:13:58;;;;;;;18.52;4.00;;;18.90;99.90;;;;;;5041161;28;20126;-52
2021/06/21 05:16:24;;;;;;;15.65;2.72;;;19.00;99.90;;;;;;5047244;28;20020;-57
2021/06/21 05:18:50;;;;;;;15.13;3.35;;;19.00;99.90;;;;;;5050241;28;20025;-52
2021/06/21 05:21:15;;;;;;;9.13;2.40;;;19.00;99.90;;;;;;5049461;28;20443;-57
2021/06/21 05:23:41;;;;;;;12.68;2.83;;;19.10;99.90;;;;;;5050966;28;20025;-49
2021/06/21 05:26:07;;;;;;;5.88;2.30;;;19.10;99.90;;;;;;5049159;28;20033;-54
2021/06/21 05:28:32;;;;;;;10.52;3.25;;;19.10;99.90;;;;;;5050034;28;20025;-55
2021/06/21 05:30:58;;;;;;;9.10;2.30;;;19.10;99.90;;;;;;5049510;28;20037;-58
2021/06/21 05:33:24;;;;;;;10.98;2.10;;;19.10;99.90;;;;;;5049799;28;20060;-53
2021/06/21 05:35:49;;;;;;;9.98;1.92;;;19.10;99.90;;;;;;5049680;28;20075;-48
2021/06/21 05:38:15;;;;;;;14.32;2.60;;;19.20;99.90;;;;;;5050326;28;20086;-53
2021/06/21 05:40:40;;;;;;;8.80;2.35;;;19.10;99.90;;;;;;5031669;28;20059;-53
2021/06/21 05:43:06;;;;;;;11.85;2.17;;;19.20;99.90;;;;;;5049793;28;20408;-54
2021/06/21 05:45:31;;;;;;;10.07;2.50;;;19.30;99.90;;;;;;5049714;28;20036;-49
2021/06/21 05:47:57;;;;;;;14.30;2.53;;;19.30;99.90;;;;;;5050117;28;20037;-52
2021/06/21 05:50:23;;;;;;;13.18;2.05;;;19.40;99.90;;;;;;5048871;28;20051;-56
2021/06/21 05:52:49;;;;;;;7.22;2.30;;;19.50;99.90;;;;;;5049979;28;20025;-57
2021/06/21 05:55:18;;;;;;;7.43;1.98;;;19.50;99.90;;;;;;5050191;28;20048;-62
2021/06/21 05:57:43;;;;;;;11.35;2.25;;;19.60;99.90;;;;;;5048924;28;20036;-53
2021/06/21 06:00:09;;;;;;;6.05;2.50;;;19.60;99.90;;;;;;5048137;28;20029;-53
2021/06/21 06:02:35;;;;;;;9.15;2.40;;;19.60;99.90;;;;;;5032589;28;20064;-52
2021/06/21 06:05:00;;;;;;;9.65;1.80;;;19.70;99.90;;;;;;5050545;28;20068;-52
2021/06/21 06:07:26;;;;;;;11.52;1.73;;;19.70;99.90;;;;;;5050461;28;20023;-55
2021/06/21 06:09:51;;;;;;;4.57;2.00;;;19.70;99.90;;;;;;5050004;28;20029;-51
2021/06/21 06:12:18;;;;;;;7.90;2.20;;;19.60;99.90;;;;;;5050566;28;20036;-50
2021/06/21 06:14:43;;;;;;;10.27;1.85;;;19.60;99.90;;;;;;5050498;28;20035;-55
2021/06/21 06:17:09;;;;;;;4.88;1.70;;;19.60;99.90;;;;;;5050896;28;20388;-49
2021/06/21 06:19:34;;;;;;;4.68;1.85;;;19.50;99.90;;;;;;5049246;28;20025;-53
2021/06/21 06:22:00;;;;;;;8.43;1.90;;;19.60;99.90;;;;;;5050697;28;20110;-54
2021/06/21 06:24:26;;;;;;;6.85;2.03;;;19.60;99.90;;;;;;5050582;28;20056;-54
2021/06/21 06:26:52;;;;;;;5.50;1.98;;;19.60;99.90;;;;;;5050410;28;20025;-53
2021/06/21 06:29:19;;;;;;;9.55;2.03;;;19.70;99.90;;;;;;5049763;28;20032;-54
2021/06/21 06:31:47;;;;;;;7.22;2.00;;;19.80;99.90;;;;;;5050465;28;20020;-53
2021/06/21 06:34:14;;;;;;;7.60;1.60;;;20.10;99.90;;;;;;5050187;28;20120;-49
2021/06/21 06:36:40;;;;;;;7.82;1.83;;;20.40;99.90;;;;;;5050094;28;20369;-52
2021/06/21 06:39:06;;;;;;;5.70;1.80;;;20.70;99.90;;;;;;5049780;28;20043;-56
2021/06/21 06:41:33;;;;;;;6.00;1.92;;;20.90;99.90;;;;;;5050380;28;20131;-52
2021/06/21 06:43:59;;;;;;;4.57;1.63;;;20.90;99.90;;;;;;5050292;28;20029;-49
2021/06/21 06:46:24;;;;;;;10.88;2.30;;;20.90;99.90;;;;;;5050200;28;20106;-54
2021/06/21 06:48:49;;;;;;;5.25;1.60;;;20.70;99.90;;;;;;5049818;28;20037;-56
2021/06/21 06:51:15;;;;;;;4.57;1.73;;;20.60;99.90;;;;;;5044812;28;20716;-49
2021/06/21 06:53:52;;;;;;;4.55;1.85;;;20.60;99.90;;;;;;5046542;28;20021;-48
2021/06/21 06:59:03;;;;;;;9.38;2.30;;;20.70;99.90;;;;;;5048217;28;20063;-48
2021/06/21 07:01:29;;;;;;;10.10;2.60;;;21.00;99.90;;;;;;5048024;28;20033;-55
2021/06/21 07:03:55;;;;;;;5.22;1.80;;;21.10;99.90;;;;;;5048958;28;20035;-57
2021/06/21 07:06:20;;;;;;;5.35;1.85;;;21.10;99.90;;;;;;5048202;28;20037;-57
2021/06/21 07:08:46;;;;;;;11.60;2.33;;;21.20;99.90;;;;;;5048872;28;20108;-57
2021/06/21 07:11:13;;;;;;;6.15;2.30;;;21.20;99.90;;;;;;5030421;28;20033;-54
2021/06/21 07:13:39;;;;;;;11.63;2.45;;;21.30;99.90;;;;;;5048662;28;20053;-48
2021/06/21 07:16:05;;;;;;;7.60;1.75;;;21.30;99.90;;;;;;5048753;28;20060;-49
2021/06/21 07:18:30;;;;;;;5.05;1.90;;;21.30;99.90;;;;;;5048317;28;20035;-53
2021/06/21 07:20:56;;;;;;;5.70;1.70;;;21.30;99.90;;;;;;5047428;28;20032;-52
2021/06/21 07:23:22;;;;;;;6.65;1.90;;;21.50;99.90;;;;;;5049041;28;20488;-49
2021/06/21 07:25:47;;;;;;;9.75;2.05;;;21.60;99.90;;;;;;5048619;28;20029;-48
2021/06/21 07:28:15;;;;;;;2.47;1.88;;;21.60;99.90;;;;;;5048468;28;20043;-49
2021/06/21 07:30:41;;;;;;;10.40;2.17;;;21.60;99.90;;;;;;5047912;28;20547;-58
2021/06/21 07:33:06;;;;;;;7.15;1.95;;;21.80;99.90;;;;;;5048562;28;20068;-55
2021/06/21 07:35:32;;;;;;;3.75;1.35;;;21.80;99.90;;;;;;5064308;23;20041;-49
2021/06/21 07:37:58;;;;;;;3.33;1.15;;;21.90;99.90;;;;;;5048595;28;20036;-51
2021/06/21 07:40:23;;;;;;;5.97;1.52;;;22.00;99.90;;;;;;5047970;28;20033;-52
2021/06/21 07:42:49;;;;;;;7.05;1.75;;;22.30;99.90;;;;;;5031361;28;20408;-53
2021/06/21 07:45:14;;;;;;;7.35;1.90;;;22.80;99.90;;;;;;5048656;28;20025;-51
2021/06/21 07:47:40;;;;;;;3.83;1.38;;;23.70;99.80;;;;;;5048896;28;20476;-51
2021/06/21 07:50:06;;;;;;;7.03;1.23;;;24.60;97.30;;;;;;5051431;28;20025;-49
2021/06/21 07:52:32;;;;;;;4.95;1.50;;;25.30;96.50;;;;;;5052870;28;20553;-61
2021/06/21 07:54:59;;;;;;;3.45;1.60;;;25.50;94.70;;;;;;5052429;28;20051;-56
2021/06/21 07:57:27;;;;;;;6.80;1.45;;;25.90;94.30;;;;;;5034827;28;20035;-57
2021/06/21 07:59:53;;;;;;;5.15;1.50;;;26.30;93.50;;;;;;5051385;28;20029;-56
2021/06/21 08:02:18;;;;;;;6.18;1.50;;;26.60;92.70;;;;;;5034078;28;20029;-54
2021/06/21 08:04:47;;;;;;;6.60;1.42;;;26.70;92.60;;;;;;5052079;28;20021;-52
2021/06/21 08:07:13;;;;;;;4.93;1.17;;;26.90;92.30;;;;;;5036206;28;20499;-55
2021/06/21 08:09:38;;;;;;;5.32;1.60;;;27.00;92.00;;;;;;5031774;28;20021;-52
2021/06/21 08:12:04;;;;;;;3.38;1.10;;;26.60;92.10;;;;;;5041992;28;20037;-51
2021/06/21 08:14:30;;;;;;;3.83;1.30;;;26.40;92.60;;;;;;5052374;28;20032;-54
2021/06/21 08:16:55;;;;;;;5.95;1.13;;;25.90;92.70;;;;;;5052918;28;20100;-54
2021/06/21 08:19:21;;;;;;;3.20;1.00;;;25.40;93.20;;;;;;5051585;28;20454;-50
2021/06/21 08:21:46;;;;;;;6.35;1.58;;;25.00;94.10;;;;;;5052466;28;20061;-53
2021/06/21 08:24:12;;;;;;;6.47;1.80;;;24.40;94.30;;;;;;5052829;28;20453;-57
2021/06/21 08:26:38;;;;;;;6.00;1.50;;;23.80;95.40;;;;;;5052574;28;20064;-53
2021/06/21 08:29:04;;;;;;;5.63;1.42;;;23.30;96.50;;;;;;5051926;28;20151;-52
2021/06/21 08:31:29;;;;;;;5.85;1.60;;;22.70;97.30;;;;;;5052914;28;20044;-49
2021/06/21 08:33:55;;;;;;;6.13;2.17;;;22.40;98.10;;;;;;5052523;28;20029;-52
2021/06/21 08:36:20;;;;;;;1.88;1.20;;;22.30;98.50;;;;;;5052522;28;20025;-51
2021/06/21 08:38:46;;;;;;;7.35;1.77;;;22.30;98.10;;;;;;5052308;28;20029;-50
2021/06/21 08:41:12;;;;;;;4.03;1.23;;;22.30;98.20;;;;;;5052642;28;20025;-49
2021/06/21 08:43:38;;;;;;;6.05;1.90;;;22.30;98.60;;;;;;5034765;28;20059;-52
2021/06/21 08:46:04;;;;;;;4.22;1.77;;;22.30;98.30;;;;;;5051180;28;20024;-50
2021/06/21 08:48:33;;;;;;;9.32;1.85;;;22.20;98.20;;;;;;5050683;28;20031;-51
2021/06/21 08:50:59;;;;;;;2.40;1.33;;;22.20;98.30;;;;;;5050216;28;20550;-49
2021/06/21 08:53:25;;;;;;;5.18;1.15;;;22.40;98.50;;;;;;5052538;28;20036;-50
2021/06/21 08:55:51;;;;;;;3.05;1.25;;;22.40;98.50;;;;;;5052228;28;20029;-49
2021/06/21 08:58:17;;;;;;;5.63;1.67;;;22.40;98.50;;;;;;5053041;28;20357;-49
2021/06/21 09:00:42;;;;;;;10.70;1.60;;;22.50;98.10;;;;;;5052109;28;20488;-50
2021/06/21 09:03:08;;;;;;;4.03;1.30;;;22.50;97.60;;;;;;5052893;28;20392;-56
2021/06/21 09:05:35;;;;;;;6.82;1.52;;;22.60;97.80;;;;;;5053332;28;20029;-56
2021/06/21 09:08:03;;;;;;;8.32;1.98;;;22.90;98.00;;;;;;5051565;28;20029;-57
2021/06/21 09:10:31;;;;;;;5.15;2.13;;;23.60;97.40;;;;;;5051724;28;20055;-54
2021/06/21 09:13:12;;;;;;;5.40;1.45;;;24.20;96.40;;;;;;5034165;28;20028;-51
2021/06/21 09:15:43;;;;;;;3.67;1.50;;;24.60;95.50;;;;;;5052181;28;20033;-54
2021/06/21 09:18:24;;;;;;;2.20;1.60;;;24.40;95.50;;;;;;5051977;28;20063;-53
2021/06/21 09:21:10;;;;;;;11.75;1.70;;;24.20;95.80;;;;;;5051070;28;20020;-53
2021/06/21 09:23:36;;;;;;;6.07;1.60;;;24.20;95.60;;;;;;5051408;28;20032;-52
2021/06/21 09:26:26;;;;;;;6.15;1.63;;;23.80;94.90;;;;;;5051986;28;20554;-55
2021/06/21 09:28:52;;;;;;;4.35;1.60;;;23.60;96.30;;;;;;5023392;28;20087;-56
2021/06/21 09:31:19;;;;;;;5.60;1.33;;;23.60;96.70;;;;;;5050745;28;20505;-51
2021/06/21 09:33:44;;;;;;;7.63;1.50;;;23.60;96.50;;;;;;5051302;28;20025;-49
2021/06/21 09:36:24;;;;;;;2.97;1.50;;;23.70;95.70;;;;;;5051710;28;20163;-58
2021/06/21 09:39:22;;;;;;;3.83;1.52;;;24.20;95.70;;;;;;5051233;28;20104;-51
2021/06/21 09:42:09;;;;;;;7.10;1.80;;;24.10;95.50;;;;;;5026792;28;20391;-53
2021/06/21 09:44:50;;;;;;;10.98;1.92;;;24.00;95.00;;;;;;5033495;28;20029;-53
2021/06/21 09:47:26;;;;;;;7.07;2.60;;;23.80;95.60;;;;;;5051393;28;20488;-50
2021/06/21 09:50:12;;;;;;;2.78;1.75;;;24.00;96.00;;;;;;5050724;28;20104;-53
2021/06/21 09:52:51;;;;;;;4.60;1.90;;;24.20;96.00;;;;;;5049159;28;20574;-55
2021/06/21 09:55:26;;;;;;;3.15;1.80;;;24.10;95.40;;;;;;5051132;28;20457;-52
2021/06/21 09:58:04;;;;;;;6.15;1.90;;;24.00;96.00;;;;;;5051074;28;20495;-51
2021/06/21 10:00:29;;;;;;;3.00;1.30;;;23.80;95.90;;;;;;5049881;28;20044;-54
2021/06/21 10:03:05;;;;;;;6.57;1.75;;;23.60;95.40;;;;;;5049901;28;20336;-53
2021/06/21 10:05:31;;;;;;;5.82;2.17;;;23.30;95.70;;;;;;5050659;28;20025;-52
2021/06/21 10:07:57;;;;;;;5.35;1.70;;;23.10;96.40;;;;;;5050292;28;20036;-53
2021/06/21 10:10:22;;;;;;;10.57;1.77;;;23.10;96.20;;;;;;5050620;28;20037;-52
2021/06/21 10:12:49;;;;;;;4.95;1.83;;;23.10;96.50;;;;;;5050177;28;20029;-53
2021/06/21 10:15:15;;;;;;;3.88;1.65;;;23.10;96.30;;;;;;5050560;28;20031;-49
2021/06/21 10:17:41;;;;;;;6.03;1.40;;;23.30;96.60;;;;;;5050760;28;20031;-51
2021/06/21 10:20:08;;;;;;;5.75;1.88;;;23.40;96.50;;;;;;5050748;28;20503;-48
2021/06/21 10:22:35;;;;;;;5.22;1.77;;;23.50;96.60;;;;;;5050788;28;20031;-49
2021/06/21 10:25:02;;;;;;;8.07;1.77;;;23.50;96.10;;;;;;5050859;28;20468;-54
2021/06/21 10:27:30;;;;;;;4.38;1.30;;;23.50;96.50;;;;;;5052111;28;20024;-54
2021/06/21 10:29:57;;;;;;;3.85;1.50;;;23.70;96.40;;;;;;5050336;28;20025;-51
2021/06/21 10:32:28;;;;;;;1.38;1.20;;;24.00;96.70;;;;;;5050671;28;20017;-49
2021/06/21 10:34:54;;;;;;;4.75;1.80;;;24.20;95.60;;;;;;5050696;28;20407;-53
2021/06/21 10:37:22;;;;;;;2.72;1.80;;;24.40;94.80;;;;;;5050496;28;20086;-51
2021/06/21 10:39:50;;;;;;;6.15;1.70;;;24.50;94.70;;;;;;5050219;28;20029;-53
2021/06/21 10:42:21;;;;;;;4.22;1.55;;;24.60;94.00;;;;;;5050604;28;20515;-51
2021/06/21 10:44:50;;;;;;;4.68;1.77;;;24.50;93.60;;;;;;5050131;28;20021;-50
2021/06/21 10:47:40;;;;;;;9.65;1.45;;;24.40;93.50;;;;;;5050509;28;20040;-51
2021/06/21 10:50:20;;;;;;;4.32;2.28;;;24.40;93.90;;;;;;5050669;28;20494;-52
2021/06/21 10:52:51;;;;;;;3.70;1.50;;;24.40;94.50;;;;;;5050667;28;20048;-54
2021/06/21 10:55:35;;;;;;;13.45;1.95;;;24.40;94.40;;;;;;5050615;28;20025;-50
2021/06/21 10:58:03;;;;;;;4.65;1.58;;;24.40;93.90;;;;;;5050579;28;20043;-53
2021/06/21 11:00:39;;;;;;;3.15;1.50;;;24.50;94.60;;;;;;5049737;28;20028;-52
2021/06/21 11:03:23;;;;;;;4.65;1.90;;;24.60;94.60;;;;;;5050264;28;20032;-53
2021/06/21 11:05:50;;;;;;;5.18;1.75;;;24.70;94.10;;;;;;5049795;28;20496;-54
2021/06/21 11:08:46;;;;;;;5.90;1.77;;;24.70;93.80;;;;;;5050067;28;20087;-53
2021/06/21 11:11:34;;;;;;;4.03;1.15;;;24.80;94.10;;;;;;5029372;28;20037;-47
2021/06/21 11:14:06;;;;;;;6.38;1.60;;;24.80;93.20;;;;;;5049551;28;20484;-53
2021/06/21 11:16:32;;;;;;;2.25;1.40;;;24.80;93.80;;;;;;5050078;28;20096;-54
2021/06/21 11:19:20;;;;;;;2.88;1.77;;;24.70;93.40;;;;;;5049917;28;20036;-50
2021/06/21 11:21:50;;;;;;;4.20;1.40;;;24.70;93.90;;;;;;5050030;28;20021;-51
2021/06/21 11:24:43;;;;;;;2.03;1.33;;;24.70;92.80;;;;;;5050708;28;20025;-53
2021/06/21 11:27:17;;;;;;;3.25;1.40;;;24.60;92.10;;;;;;5053993;28;20502;-55
2021/06/21 11:29:48;;;;;;;3.10;1.23;;;24.50;92.30;;;;;;5053810;28;20025;-54
2021/06/21 11:32:16;;;;;;;3.30;1.38;;;24.40;93.30;;;;;;5053870;28;20028;-54
2021/06/21 11:34:47;;;;;;;4.45;1.15;;;24.40;93.10;;;;;;5053150;28;20028;-52
2021/06/21 11:37:30;;;;;;;3.83;1.58;;;24.40;94.00;;;;;;5053738;28;20029;-55
2021/06/21 11:40:11;;;;;;;3.65;1.35;;;24.40;94.90;;;;;;5053445;28;20028;-55
2021/06/21 11:42:36;;;;;;;4.43;1.52;;;24.50;95.00;;;;;;5053443;28;20546;-52
2021/06/21 11:45:03;;;;;;;1.92;1.30;;;24.60;94.40;;;;;;5053395;28;20116;-50
2021/06/21 11:47:29;;;;;;;2.92;1.35;;;24.70;94.60;;;;;;5053400;28;20025;-52
2021/06/21 11:50:07;;;;;;;6.30;1.50;;;24.80;94.40;;;;;;5053149;28;20017;-50
2021/06/21 11:52:32;;;;;;;2.45;1.45;;;24.80;93.80;;;;;;5053472;28;20618;-54
2021/06/21 11:55:15;;;;;;;3.22;1.20;;;24.90;93.50;;;;;;5052926;28;20120;-54
2021/06/21 11:57:43;;;;;;;5.25;1.60;;;24.80;93.90;;;;;;5035118;28;20025;-52
2021/06/21 12:00:09;;;;;;;2.40;1.00;;;24.80;93.70;;;;;;5052798;28;20452;-53
2021/06/21 12:02:34;;;;;;;5.47;2.17;;;24.80;93.60;;;;;;5052797;28;20029;-52
2021/06/21 12:05:10;;;;;;;3.97;1.60;;;24.70;93.70;;;;;;5052719;28;20021;-52
2021/06/21 12:07:41;;;;;;;3.55;1.60;;;24.60;93.20;;;;;;5053159;28;20082;-55
2021/06/21 12:10:14;;;;;;;3.10;1.40;;;24.60;93.90;;;;;;5052577;28;20104;-53
2021/06/21 12:12:42;;;;;;;5.47;1.50;;;24.70;92.90;;;;;;5052916;28;20055;-49
2021/06/21 12:15:11;;;;;;;7.63;1.60;;;24.70;93.30;;;;;;5052867;28;20170;-52
2021/06/21 12:17:37;;;;;;;6.90;1.60;;;24.70;93.00;;;;;;5052710;28;20112;-52
2021/06/21 12:20:08;;;;;;;6.20;2.13;;;24.80;93.00;;;;;;5052280;28;20143;-50
2021/06/21 12:22:35;;;;;;;3.13;1.58;;;24.80;92.90;;;;;;5052870;28;20024;-50
2021/06/21 12:25:02;;;;;;;7.93;1.45;;;24.80;93.10;;;;;;5052535;28;20100;-52
2021/06/21 12:27:30;;;;;;;3.03;1.20;;;24.80;93.90;;;;;;5052705;28;20107;-54
2021/06/21 12:29:56;;;;;;;3.50;1.55;;;25.00;93.10;;;;;;5052445;28;20585;-51
2021/06/21 12:32:28;;;;;;;1.13;1.10;;;25.00;93.10;;;;;;5034629;28;20021;-53
2021/06/21 12:34:58;;;;;;;5.82;1.40;;;25.10;93.80;;;;;;5051924;28;20036;-54
2021/06/21 12:37:26;;;;;;;3.67;1.65;;;25.10;93.60;;;;;;5051948;28;20044;-54
2021/06/21 12:39:56;;;;;;;1.48;1.38;;;25.20;92.90;;;;;;5052236;28;20090;-53
2021/06/21 12:42:22;;;;;;;2.15;1.45;;;25.30;93.90;;;;;;5052339;28;20545;-53
2021/06/21 12:44:48;;;;;;;3.50;1.27;;;25.30;92.20;;;;;;5052214;28;20060;-52
2021/06/21 12:47:26;;;;;;;4.20;1.48;;;25.30;92.70;;;;;;5052165;28;20036;-50
2021/06/21 12:50:01;;;;;;;3.65;1.50;;;25.50;91.40;;;;;;5052040;28;20540;-49
2021/06/21 12:52:27;;;;;;;2.65;1.27;;;25.30;91.60;;;;;;5052229;28;20052;-54
2021/06/21 12:55:07;;;;;;;3.05;1.58;;;25.30;92.40;;;;;;5051739;28;20087;-54